DHK27DY EGKK-EDDP
Flight info
| Callsign | DHK27DY |
|---|---|
| Flight time | 1h 14m |
| Altitude | 35000 |
| Route | FRANE M604 GASBA M197 REDFA DCT TACHA DCT NORTA DCT ADMOS T959 KOJEC KOJEC1R |
| Aircraft | B77L/H-SDE1E2E3FGHIJ2J3J4J5M1RWXY/LB1D1 |
Departure
| Time | 2026-04-16 09:44 |
|---|---|
| Airport | London Gatwick Airport (EGKK) |
Arrival
| Time | 2026-04-16 10:58 |
|---|---|
| Airport | Leipzig/Halle Airport (EDDP) |
| Time | Latitude | Longitude | Altitude | Speed | Heading |
|---|---|---|---|---|---|
| 2026-04-16 09:20 | 51.15538 | -0.18715 | 199 ft | 0 kts | 167° |
| 2026-04-16 09:34 | 51.15543 | -0.18717 | 198 ft | 0 kts | 168° |
| 2026-04-16 09:34 | 51.15557 | -0.18723 | 198 ft | 2 kts | 153° |
| 2026-04-16 09:35 | 51.15568 | -0.18737 | 198 ft | 2 kts | 132° |
| 2026-04-16 09:35 | 51.15577 | -0.18756 | 198 ft | 2 kts | 115° |
| 2026-04-16 09:35 | 51.15582 | -0.18779 | 198 ft | 2 kts | 97° |
| 2026-04-16 09:35 | 51.15582 | -0.18801 | 198 ft | 1 kts | 79° |
| 2026-04-16 09:36 | 51.15581 | -0.18810 | 198 ft | 0 kts | 77° |
| 2026-04-16 09:36 | 51.15581 | -0.18809 | 198 ft | 0 kts | 77° |
| 2026-04-16 09:38 | 51.15583 | -0.18797 | 198 ft | 1 kts | 79° |
| 2026-04-16 09:38 | 51.15586 | -0.18773 | 198 ft | 3 kts | 79° |
| 2026-04-16 09:38 | 51.15593 | -0.18711 | 198 ft | 7 kts | 78° |
| 2026-04-16 09:38 | 51.15608 | -0.18607 | 198 ft | 12 kts | 77° |
| 2026-04-16 09:39 | 51.15631 | -0.18439 | 196 ft | 18 kts | 78° |
| 2026-04-16 09:39 | 51.15662 | -0.18219 | 195 ft | 22 kts | 77° |
| 2026-04-16 09:39 | 51.15692 | -0.17998 | 198 ft | 18 kts | 76° |
| 2026-04-16 09:39 | 51.15718 | -0.17808 | 200 ft | 15 kts | 76° |
| 2026-04-16 09:40 | 51.15739 | -0.17657 | 202 ft | 13 kts | 78° |
| 2026-04-16 09:40 | 51.15748 | -0.17543 | 202 ft | 7 kts | 105° |
| 2026-04-16 09:40 | 51.15712 | -0.17499 | 202 ft | 8 kts | 162° |
| 2026-04-16 09:40 | 51.15638 | -0.17473 | 201 ft | 11 kts | 168° |
| 2026-04-16 09:41 | 51.15558 | -0.17446 | 199 ft | 11 kts | 168° |
| 2026-04-16 09:41 | 51.15477 | -0.17417 | 197 ft | 12 kts | 168° |
| 2026-04-16 09:41 | 51.15387 | -0.17384 | 194 ft | 13 kts | 167° |
| 2026-04-16 09:41 | 51.15293 | -0.17353 | 192 ft | 13 kts | 167° |
| 2026-04-16 09:42 | 51.15242 | -0.17254 | 190 ft | 13 kts | 85° |
| 2026-04-16 09:42 | 51.15261 | -0.17109 | 188 ft | 13 kts | 77° |
| 2026-04-16 09:42 | 51.15280 | -0.16972 | 189 ft | 11 kts | 78° |
| 2026-04-16 09:42 | 51.15281 | -0.16865 | 191 ft | 9 kts | 119° |
| 2026-04-16 09:43 | 51.15230 | -0.16812 | 193 ft | 7 kts | 162° |
| 2026-04-16 09:43 | 51.15185 | -0.16796 | 193 ft | 5 kts | 169° |
| 2026-04-16 09:43 | 51.15152 | -0.16787 | 194 ft | 3 kts | 173° |
| 2026-04-16 09:43 | 51.15129 | -0.16814 | 194 ft | 7 kts | 239° |
| 2026-04-16 09:44 | 51.15094 | -0.17007 | 191 ft | 45 kts | 257° |
| 2026-04-16 09:44 | 51.14969 | -0.17890 | 202 ft | 115 kts | 258° |
| 2026-04-16 09:44 | 51.14758 | -0.19451 | 243 ft | 169 kts | 257° |
| 2026-04-16 09:44 | 51.14527 | -0.21316 | 953 ft | 171 kts | 256° |
| 2026-04-16 09:45 | 51.14288 | -0.23075 | 1827 ft | 165 kts | 257° |
| 2026-04-16 09:45 | 51.14033 | -0.24948 | 2190 ft | 183 kts | 257° |
| 2026-04-16 09:45 | 51.13754 | -0.27008 | 2626 ft | 199 kts | 257° |
| 2026-04-16 09:45 | 51.13747 | -0.29279 | 3123 ft | 215 kts | 283° |
| 2026-04-16 09:46 | 51.14431 | -0.31352 | 3813 ft | 221 kts | 308° |
| 2026-04-16 09:46 | 51.15695 | -0.32836 | 3975 ft | 239 kts | 336° |
| 2026-04-16 09:46 | 51.17427 | -0.33062 | 4477 ft | 262 kts | 14° |
| 2026-04-16 09:46 | 51.18912 | -0.31651 | 5626 ft | 251 kts | 47° |
| 2026-04-16 09:47 | 51.19754 | -0.29233 | 6297 ft | 255 kts | 81° |
| 2026-04-16 09:47 | 51.19864 | -0.26427 | 6903 ft | 259 kts | 91° |
| 2026-04-16 09:47 | 51.20014 | -0.23555 | 7555 ft | 263 kts | 84° |
| 2026-04-16 09:47 | 51.20307 | -0.20679 | 8266 ft | 264 kts | 81° |
| 2026-04-16 09:48 | 51.20665 | -0.17787 | 8713 ft | 278 kts | 80° |
| 2026-04-16 09:48 | 51.21072 | -0.14662 | 9034 ft | 296 kts | 79° |
| 2026-04-16 09:48 | 51.21505 | -0.11388 | 9595 ft | 305 kts | 79° |
| 2026-04-16 09:48 | 51.21946 | -0.08088 | 10315 ft | 308 kts | 77° |
| 2026-04-16 09:49 | 51.22829 | -0.04947 | 10649 ft | 324 kts | 51° |
| 2026-04-16 09:49 | 51.24437 | -0.02321 | 10922 ft | 341 kts | 40° |
| 2026-04-16 09:49 | 51.26261 | 0.00250 | 11291 ft | 358 kts | 39° |
| 2026-04-16 09:49 | 51.28185 | 0.02932 | 11745 ft | 373 kts | 39° |
| 2026-04-16 09:50 | 51.30147 | 0.05668 | 12205 ft | 388 kts | 39° |
| 2026-04-16 09:50 | 51.32202 | 0.08538 | 12816 ft | 398 kts | 39° |
| 2026-04-16 09:50 | 51.34302 | 0.11475 | 13623 ft | 402 kts | 39° |
| 2026-04-16 09:50 | 51.36403 | 0.14418 | 14474 ft | 406 kts | 39° |
| 2026-04-16 09:51 | 51.38533 | 0.17404 | 15323 ft | 411 kts | 38° |
| 2026-04-16 09:51 | 51.40681 | 0.20419 | 16141 ft | 416 kts | 38° |
| 2026-04-16 09:51 | 51.42872 | 0.23497 | 16857 ft | 423 kts | 38° |
| 2026-04-16 09:51 | 51.45067 | 0.26585 | 17564 ft | 430 kts | 37° |
| 2026-04-16 09:52 | 51.47310 | 0.29745 | 18388 ft | 433 kts | 37° |
| 2026-04-16 09:52 | 51.49570 | 0.32935 | 19160 ft | 438 kts | 37° |
| 2026-04-16 09:52 | 51.51857 | 0.36164 | 19850 ft | 444 kts | 37° |
| 2026-04-16 09:52 | 51.54183 | 0.39453 | 20583 ft | 449 kts | 37° |
| 2026-04-16 09:53 | 51.56522 | 0.42766 | 21351 ft | 452 kts | 37° |
| 2026-04-16 09:53 | 51.58880 | 0.46110 | 22032 ft | 457 kts | 36° |
| 2026-04-16 09:53 | 51.61293 | 0.49536 | 22709 ft | 462 kts | 37° |
| 2026-04-16 09:53 | 51.63703 | 0.52962 | 23396 ft | 466 kts | 36° |
| 2026-04-16 09:54 | 51.66101 | 0.56378 | 24146 ft | 469 kts | 36° |
| 2026-04-16 09:54 | 51.68565 | 0.59890 | 24783 ft | 473 kts | 36° |
| 2026-04-16 09:54 | 51.71035 | 0.63416 | 25320 ft | 479 kts | 36° |
| 2026-04-16 09:54 | 51.73512 | 0.66956 | 25848 ft | 485 kts | 37° |
| 2026-04-16 09:55 | 51.76048 | 0.70586 | 26342 ft | 491 kts | 37° |
| 2026-04-16 09:55 | 51.78609 | 0.74257 | 26915 ft | 496 kts | 37° |
| 2026-04-16 09:55 | 51.81187 | 0.77958 | 27514 ft | 500 kts | 37° |
| 2026-04-16 09:55 | 51.83791 | 0.81751 | 28115 ft | 506 kts | 39° |
| 2026-04-16 09:56 | 51.86111 | 0.86008 | 28677 ft | 518 kts | 49° |
| 2026-04-16 09:56 | 51.88061 | 0.90955 | 29189 ft | 529 kts | 59° |
| 2026-04-16 09:56 | 51.89543 | 0.96418 | 29825 ft | 535 kts | 68° |
| 2026-04-16 09:56 | 51.90522 | 1.02212 | 30596 ft | 537 kts | 78° |
| 2026-04-16 09:57 | 51.91021 | 1.08145 | 31397 ft | 535 kts | 82° |
| 2026-04-16 09:57 | 51.91470 | 1.14157 | 32006 ft | 534 kts | 81° |
| 2026-04-16 09:57 | 51.92045 | 1.20079 | 32427 ft | 537 kts | 78° |
| 2026-04-16 09:57 | 51.92741 | 1.25981 | 32877 ft | 538 kts | 76° |
| 2026-04-16 09:58 | 51.93542 | 1.31974 | 33387 ft | 538 kts | 75° |
| 2026-04-16 09:58 | 51.94394 | 1.37883 | 33933 ft | 536 kts | 73° |
| 2026-04-16 09:58 | 51.95280 | 1.43734 | 34503 ft | 535 kts | 73° |
| 2026-04-16 09:58 | 51.96231 | 1.49782 | 34957 ft | 534 kts | 72° |
| 2026-04-16 09:59 | 51.97196 | 1.55754 | 35114 ft | 537 kts | 72° |
| 2026-04-16 09:59 | 51.99178 | 1.67687 | 35150 ft | 531 kts | 72° |
| 2026-04-16 10:00 | 52.01008 | 1.79479 | 35131 ft | 531 kts | 74° |
| 2026-04-16 10:00 | 52.02793 | 1.91314 | 35151 ft | 533 kts | 73° |
| 2026-04-16 10:01 | 52.05466 | 2.08942 | 35153 ft | 532 kts | 73° |
| 2026-04-16 10:01 | 52.07215 | 2.20501 | 35186 ft | 532 kts | 73° |
| 2026-04-16 10:02 | 52.08992 | 2.32299 | 35155 ft | 531 kts | 73° |
| 2026-04-16 10:02 | 52.10731 | 2.43905 | 35184 ft | 530 kts | 73° |
| 2026-04-16 10:03 | 52.12248 | 2.55633 | 35254 ft | 531 kts | 82° |
| 2026-04-16 10:03 | 52.12408 | 2.61613 | 35121 ft | 533 kts | 89° |
| 2026-04-16 10:03 | 52.12387 | 2.67651 | 35233 ft | 533 kts | 90° |
| 2026-04-16 10:04 | 52.12352 | 2.73638 | 35124 ft | 534 kts | 90° |
| 2026-04-16 10:04 | 52.12312 | 2.79682 | 35114 ft | 534 kts | 90° |
| 2026-04-16 10:04 | 52.12224 | 2.91726 | 35134 ft | 531 kts | 90° |
| 2026-04-16 10:05 | 52.12123 | 3.03788 | 35163 ft | 532 kts | 90° |
| 2026-04-16 10:05 | 52.12011 | 3.15742 | 35204 ft | 531 kts | 90° |
| 2026-04-16 10:06 | 52.11887 | 3.27709 | 35216 ft | 530 kts | 90° |
| 2026-04-16 10:06 | 52.11751 | 3.39703 | 35251 ft | 531 kts | 90° |
| 2026-04-16 10:07 | 52.11678 | 3.45702 | 35122 ft | 532 kts | 90° |
| 2026-04-16 10:07 | 52.11602 | 3.51702 | 35205 ft | 533 kts | 90° |
| 2026-04-16 10:07 | 52.11443 | 3.63615 | 35187 ft | 528 kts | 90° |
| 2026-04-16 10:08 | 52.11269 | 3.75671 | 35211 ft | 531 kts | 91° |
| 2026-04-16 10:08 | 52.11086 | 3.87610 | 35132 ft | 529 kts | 91° |
| 2026-04-16 10:09 | 52.10889 | 3.99567 | 35174 ft | 532 kts | 91° |
| 2026-04-16 10:09 | 52.10679 | 4.11622 | 35188 ft | 529 kts | 91° |
| 2026-04-16 10:10 | 52.10636 | 4.14034 | 35105 ft | 530 kts | 91° |
| 2026-04-16 10:10 | 52.10412 | 4.26039 | 35170 ft | 534 kts | 91° |
| 2026-04-16 10:11 | 52.10177 | 4.38008 | 35219 ft | 530 kts | 91° |
| 2026-04-16 10:11 | 52.09931 | 4.49939 | 35230 ft | 529 kts | 91° |
| 2026-04-16 10:12 | 52.09673 | 4.61842 | 35210 ft | 527 kts | 91° |
| 2026-04-16 10:12 | 52.09403 | 4.73742 | 35206 ft | 528 kts | 92° |
| 2026-04-16 10:13 | 52.09122 | 4.85628 | 35191 ft | 529 kts | 91° |
| 2026-04-16 10:13 | 52.08827 | 4.97596 | 35165 ft | 528 kts | 92° |
| 2026-04-16 10:14 | 52.08524 | 5.09398 | 35183 ft | 527 kts | 92° |
| 2026-04-16 10:14 | 52.08208 | 5.21241 | 35122 ft | 527 kts | 91° |
| 2026-04-16 10:15 | 52.07881 | 5.33075 | 35189 ft | 527 kts | 92° |
| 2026-04-16 10:15 | 52.07541 | 5.44952 | 35200 ft | 526 kts | 92° |
| 2026-04-16 10:16 | 52.06975 | 5.56738 | 35121 ft | 527 kts | 96° |
| 2026-04-16 10:16 | 52.06173 | 5.68466 | 35220 ft | 526 kts | 96° |
| 2026-04-16 10:17 | 52.05355 | 5.80236 | 35227 ft | 524 kts | 96° |
| 2026-04-16 10:17 | 52.04520 | 5.92071 | 35170 ft | 528 kts | 96° |
| 2026-04-16 10:18 | 52.03685 | 6.03727 | 35221 ft | 524 kts | 96° |
| 2026-04-16 10:18 | 52.02834 | 6.15461 | 35174 ft | 525 kts | 96° |
| 2026-04-16 10:19 | 52.01971 | 6.27174 | 35164 ft | 524 kts | 96° |
| 2026-04-16 10:19 | 52.01087 | 6.39022 | 35195 ft | 522 kts | 96° |
| 2026-04-16 10:20 | 52.00207 | 6.50664 | 35240 ft | 523 kts | 96° |
| 2026-04-16 10:20 | 51.99311 | 6.62352 | 35221 ft | 523 kts | 97° |
| 2026-04-16 10:21 | 51.98405 | 6.74011 | 35152 ft | 521 kts | 97° |
| 2026-04-16 10:21 | 51.97496 | 6.85567 | 35178 ft | 523 kts | 97° |
| 2026-04-16 10:22 | 51.96568 | 6.97224 | 35198 ft | 521 kts | 97° |
| 2026-04-16 10:22 | 51.95631 | 7.08838 | 35227 ft | 524 kts | 97° |
| 2026-04-16 10:23 | 51.94677 | 7.20510 | 35175 ft | 521 kts | 97° |
| 2026-04-16 10:23 | 51.93710 | 7.32206 | 35172 ft | 523 kts | 97° |
| 2026-04-16 10:24 | 51.92742 | 7.43765 | 35214 ft | 521 kts | 97° |
| 2026-04-16 10:24 | 51.91761 | 7.55346 | 35217 ft | 522 kts | 97° |
| 2026-04-16 10:25 | 51.90760 | 7.67015 | 35216 ft | 520 kts | 98° |
| 2026-04-16 10:25 | 51.89760 | 7.78547 | 35182 ft | 521 kts | 98° |
| 2026-04-16 10:26 | 51.88745 | 7.90108 | 35189 ft | 519 kts | 98° |
| 2026-04-16 10:26 | 51.87720 | 8.01652 | 35199 ft | 519 kts | 98° |
| 2026-04-16 10:27 | 51.86689 | 8.13140 | 35194 ft | 520 kts | 98° |
| 2026-04-16 10:27 | 51.85643 | 8.24665 | 35220 ft | 519 kts | 98° |
| 2026-04-16 10:28 | 51.84586 | 8.36179 | 35198 ft | 518 kts | 98° |
| 2026-04-16 10:28 | 51.83524 | 8.47619 | 35263 ft | 520 kts | 98° |
| 2026-04-16 10:29 | 51.82447 | 8.59105 | 35236 ft | 518 kts | 98° |
| 2026-04-16 10:29 | 51.81359 | 8.70575 | 35236 ft | 519 kts | 99° |
| 2026-04-16 10:30 | 51.80257 | 8.82075 | 35222 ft | 518 kts | 99° |
| 2026-04-16 10:30 | 51.79151 | 8.93502 | 35231 ft | 516 kts | 99° |
| 2026-04-16 10:31 | 51.78033 | 9.04930 | 35206 ft | 518 kts | 99° |
| 2026-04-16 10:31 | 51.76910 | 9.16300 | 34719 ft | 513 kts | 99° |
| 2026-04-16 10:32 | 51.76339 | 9.22034 | 33421 ft | 527 kts | 99° |
| 2026-04-16 10:32 | 51.75753 | 9.27884 | 32048 ft | 540 kts | 98° |
| 2026-04-16 10:32 | 51.75148 | 9.33895 | 30739 ft | 550 kts | 99° |
| 2026-04-16 10:32 | 51.74542 | 9.39887 | 30091 ft | 544 kts | 99° |
| 2026-04-16 10:33 | 51.73939 | 9.45811 | 30216 ft | 525 kts | 99° |
| 2026-04-16 10:33 | 51.73351 | 9.51567 | 30370 ft | 522 kts | 99° |
| 2026-04-16 10:33 | 51.72759 | 9.57322 | 30132 ft | 527 kts | 99° |
| 2026-04-16 10:33 | 51.72211 | 9.63160 | 29862 ft | 523 kts | 95° |
| 2026-04-16 10:34 | 51.71723 | 9.74751 | 29658 ft | 527 kts | 93° |
| 2026-04-16 10:34 | 51.71495 | 9.80632 | 29374 ft | 523 kts | 93° |
| 2026-04-16 10:34 | 51.71266 | 9.86438 | 29101 ft | 517 kts | 93° |
| 2026-04-16 10:35 | 51.71037 | 9.92196 | 28845 ft | 514 kts | 93° |
| 2026-04-16 10:35 | 51.70807 | 9.97910 | 28568 ft | 510 kts | 93° |
| 2026-04-16 10:35 | 51.70578 | 10.03545 | 28313 ft | 509 kts | 93° |
| 2026-04-16 10:35 | 51.70343 | 10.09225 | 27888 ft | 510 kts | 93° |
| 2026-04-16 10:36 | 51.70107 | 10.14895 | 27360 ft | 507 kts | 93° |
| 2026-04-16 10:36 | 51.69869 | 10.20524 | 26834 ft | 502 kts | 93° |
| 2026-04-16 10:36 | 51.69632 | 10.26097 | 26312 ft | 497 kts | 93° |
| 2026-04-16 10:36 | 51.69394 | 10.31603 | 25783 ft | 491 kts | 93° |
| 2026-04-16 10:37 | 51.69157 | 10.37040 | 25258 ft | 486 kts | 93° |
| 2026-04-16 10:37 | 51.68920 | 10.42424 | 24727 ft | 481 kts | 93° |
| 2026-04-16 10:37 | 51.68683 | 10.47753 | 24213 ft | 476 kts | 93° |
| 2026-04-16 10:37 | 51.68449 | 10.52959 | 23695 ft | 472 kts | 93° |
| 2026-04-16 10:38 | 51.68213 | 10.58173 | 23185 ft | 467 kts | 93° |
| 2026-04-16 10:38 | 51.67973 | 10.63411 | 22674 ft | 463 kts | 93° |
| 2026-04-16 10:38 | 51.67736 | 10.68534 | 22176 ft | 459 kts | 94° |
| 2026-04-16 10:38 | 51.67502 | 10.73551 | 21684 ft | 454 kts | 94° |
| 2026-04-16 10:39 | 51.67263 | 10.78621 | 21162 ft | 450 kts | 94° |
| 2026-04-16 10:39 | 51.67028 | 10.83581 | 20640 ft | 446 kts | 94° |
| 2026-04-16 10:39 | 51.66790 | 10.88553 | 20140 ft | 442 kts | 94° |
| 2026-04-16 10:39 | 51.66555 | 10.93414 | 19627 ft | 437 kts | 94° |
| 2026-04-16 10:40 | 51.66319 | 10.98239 | 19117 ft | 433 kts | 94° |
| 2026-04-16 10:40 | 51.66081 | 11.03083 | 18629 ft | 429 kts | 94° |
| 2026-04-16 10:40 | 51.65847 | 11.07817 | 18104 ft | 425 kts | 94° |
| 2026-04-16 10:40 | 51.65613 | 11.12493 | 17600 ft | 421 kts | 94° |
| 2026-04-16 10:41 | 51.65379 | 11.17133 | 17230 ft | 413 kts | 94° |
| 2026-04-16 10:41 | 51.65147 | 11.21714 | 17183 ft | 416 kts | 94° |
| 2026-04-16 10:41 | 51.64911 | 11.26331 | 17178 ft | 417 kts | 94° |
| 2026-04-16 10:41 | 51.64671 | 11.30998 | 17180 ft | 416 kts | 94° |
| 2026-04-16 10:42 | 51.64431 | 11.35616 | 17181 ft | 416 kts | 94° |
| 2026-04-16 10:42 | 51.64188 | 11.40282 | 17179 ft | 417 kts | 94° |
| 2026-04-16 10:42 | 51.63945 | 11.44887 | 17180 ft | 416 kts | 94° |
| 2026-04-16 10:42 | 51.63701 | 11.49485 | 17196 ft | 417 kts | 94° |
| 2026-04-16 10:43 | 51.63454 | 11.54106 | 17184 ft | 415 kts | 94° |
| 2026-04-16 10:43 | 51.63206 | 11.58722 | 17175 ft | 410 kts | 94° |
| 2026-04-16 10:43 | 51.62962 | 11.63223 | 16938 ft | 400 kts | 94° |
| 2026-04-16 10:43 | 51.62720 | 11.67674 | 16423 ft | 398 kts | 95° |
| 2026-04-16 10:44 | 51.62477 | 11.72090 | 15846 ft | 397 kts | 95° |
| 2026-04-16 10:44 | 51.62235 | 11.76490 | 15334 ft | 395 kts | 95° |
| 2026-04-16 10:44 | 51.61992 | 11.80848 | 14877 ft | 391 kts | 95° |
| 2026-04-16 10:44 | 51.61752 | 11.85144 | 14501 ft | 386 kts | 94° |
| 2026-04-16 10:45 | 51.61509 | 11.89467 | 14241 ft | 387 kts | 94° |
| 2026-04-16 10:45 | 51.61266 | 11.93754 | 13990 ft | 385 kts | 94° |
| 2026-04-16 10:45 | 51.61025 | 11.97981 | 13605 ft | 380 kts | 94° |
| 2026-04-16 10:45 | 51.60784 | 12.02187 | 13088 ft | 379 kts | 94° |
| 2026-04-16 10:46 | 51.60540 | 12.06416 | 12597 ft | 377 kts | 94° |
| 2026-04-16 10:46 | 51.60301 | 12.10538 | 12146 ft | 374 kts | 94° |
| 2026-04-16 10:46 | 51.60060 | 12.14671 | 11682 ft | 371 kts | 94° |
| 2026-04-16 10:46 | 51.59820 | 12.18756 | 11232 ft | 368 kts | 94° |
| 2026-04-16 10:47 | 51.59580 | 12.22825 | 10693 ft | 366 kts | 94° |
| 2026-04-16 10:47 | 51.59339 | 12.26888 | 10299 ft | 361 kts | 94° |
| 2026-04-16 10:47 | 51.59104 | 12.30824 | 10188 ft | 347 kts | 93° |
| 2026-04-16 10:47 | 51.58878 | 12.34573 | 10164 ft | 332 kts | 93° |
| 2026-04-16 10:48 | 51.58661 | 12.38169 | 10162 ft | 317 kts | 93° |
| 2026-04-16 10:48 | 51.58450 | 12.41642 | 10131 ft | 302 kts | 93° |
| 2026-04-16 10:48 | 51.58251 | 12.44918 | 10142 ft | 288 kts | 93° |
| 2026-04-16 10:48 | 51.58060 | 12.48031 | 10144 ft | 274 kts | 93° |
| 2026-04-16 10:49 | 51.57874 | 12.51108 | 9990 ft | 286 kts | 93° |
| 2026-04-16 10:49 | 51.57677 | 12.54342 | 9576 ft | 292 kts | 93° |
| 2026-04-16 10:49 | 51.57481 | 12.57569 | 9175 ft | 293 kts | 93° |
| 2026-04-16 10:49 | 51.57283 | 12.60811 | 8815 ft | 292 kts | 93° |
| 2026-04-16 10:50 | 51.57085 | 12.64045 | 8458 ft | 292 kts | 93° |
| 2026-04-16 10:50 | 51.56910 | 12.67295 | 8096 ft | 291 kts | 89° |
| 2026-04-16 10:50 | 51.56971 | 12.70518 | 7742 ft | 289 kts | 87° |
| 2026-04-16 10:50 | 51.56644 | 12.73669 | 7374 ft | 291 kts | 113° |
| 2026-04-16 10:51 | 51.55507 | 12.76302 | 7000 ft | 290 kts | 139° |
| 2026-04-16 10:51 | 51.53802 | 12.77908 | 6617 ft | 286 kts | 163° |
| 2026-04-16 10:51 | 51.51882 | 12.78630 | 6245 ft | 285 kts | 174° |
| 2026-04-16 10:51 | 51.49903 | 12.78991 | 5870 ft | 284 kts | 177° |
| 2026-04-16 10:52 | 51.47943 | 12.79222 | 5525 ft | 282 kts | 182° |
| 2026-04-16 10:52 | 51.46064 | 12.78629 | 5185 ft | 274 kts | 209° |
| 2026-04-16 10:52 | 51.44581 | 12.76842 | 4989 ft | 261 kts | 232° |
| 2026-04-16 10:52 | 51.43757 | 12.74408 | 4842 ft | 249 kts | 261° |
| 2026-04-16 10:53 | 51.43557 | 12.71673 | 4748 ft | 248 kts | 268° |
| 2026-04-16 10:53 | 51.43434 | 12.68926 | 4646 ft | 246 kts | 268° |
| 2026-04-16 10:53 | 51.43311 | 12.66239 | 4548 ft | 238 kts | 268° |
| 2026-04-16 10:53 | 51.43184 | 12.63658 | 4457 ft | 230 kts | 268° |
| 2026-04-16 10:54 | 51.43056 | 12.61019 | 4385 ft | 246 kts | 268° |
| 2026-04-16 10:54 | 51.42942 | 12.58241 | 4297 ft | 254 kts | 269° |
| 2026-04-16 10:54 | 51.42830 | 12.55404 | 4051 ft | 259 kts | 268° |
| 2026-04-16 10:54 | 51.42713 | 12.52540 | 3701 ft | 258 kts | 268° |
| 2026-04-16 10:55 | 51.42588 | 12.49676 | 3381 ft | 258 kts | 268° |
| 2026-04-16 10:55 | 51.42459 | 12.46853 | 3037 ft | 248 kts | 268° |
| 2026-04-16 10:55 | 51.42314 | 12.44236 | 2742 ft | 230 kts | 266° |
| 2026-04-16 10:55 | 51.42171 | 12.41796 | 2472 ft | 211 kts | 267° |
| 2026-04-16 10:56 | 51.42052 | 12.39552 | 2203 ft | 194 kts | 268° |
| 2026-04-16 10:56 | 51.41953 | 12.37492 | 1968 ft | 177 kts | 269° |
| 2026-04-16 10:56 | 51.41865 | 12.35620 | 1739 ft | 163 kts | 269° |
| 2026-04-16 10:56 | 51.41783 | 12.33825 | 1520 ft | 159 kts | 268° |
| 2026-04-16 10:57 | 51.41701 | 12.32062 | 1302 ft | 157 kts | 268° |
| 2026-04-16 10:57 | 51.41622 | 12.30319 | 1082 ft | 157 kts | 266° |
| 2026-04-16 10:57 | 51.41539 | 12.28581 | 866 ft | 157 kts | 267° |
| 2026-04-16 10:57 | 51.41464 | 12.26860 | 653 ft | 157 kts | 266° |
| 2026-04-16 10:58 | 51.41381 | 12.25117 | 480 ft | 153 kts | 266° |
| 2026-04-16 10:58 | 51.41309 | 12.23582 | 468 ft | 120 kts | 265° |
| 2026-04-16 10:58 | 51.41254 | 12.22456 | 467 ft | 80 kts | 264° |
| 2026-04-16 10:58 | 51.41222 | 12.21942 | 455 ft | 33 kts | 243° |
| 2026-04-16 10:59 | 51.41123 | 12.21667 | 452 ft | 15 kts | 220° |
| 2026-04-16 10:59 | 51.41086 | 12.21659 | 453 ft | 3 kts | 151° |
| 2026-04-16 10:59 | 51.41076 | 12.21671 | 453 ft | 0 kts | 135° |
| 2026-04-16 10:59 | 51.41061 | 12.21717 | 455 ft | 6 kts | 111° |
| 2026-04-16 11:00 | 51.41056 | 12.21759 | 455 ft | 2 kts | 95° |
| 2026-04-16 11:00 | 51.41055 | 12.21771 | 456 ft | 1 kts | 92° |
| 2026-04-16 11:00 | 51.41055 | 12.21861 | 458 ft | 13 kts | 87° |
| 2026-04-16 11:00 | 51.41061 | 12.22007 | 462 ft | 11 kts | 86° |
| 2026-04-16 11:01 | 51.41065 | 12.22119 | 464 ft | 8 kts | 89° |
| 2026-04-16 11:01 | 51.41070 | 12.22197 | 466 ft | 5 kts | 84° |
| 2026-04-16 11:01 | 51.41074 | 12.22268 | 467 ft | 7 kts | 86° |
| 2026-04-16 11:01 | 51.41077 | 12.22345 | 470 ft | 7 kts | 87° |
| 2026-04-16 11:02 | 51.41080 | 12.22421 | 471 ft | 6 kts | 84° |
| 2026-04-16 11:02 | 51.41083 | 12.22485 | 472 ft | 4 kts | 86° |
| 2026-04-16 11:02 | 51.41085 | 12.22523 | 473 ft | 3 kts | 85° |
| 2026-04-16 11:02 | 51.41089 | 12.22582 | 474 ft | 7 kts | 85° |
| 2026-04-16 11:03 | 51.41094 | 12.22695 | 476 ft | 13 kts | 85° |
| 2026-04-16 11:03 | 51.41104 | 12.22893 | 475 ft | 19 kts | 89° |
| 2026-04-16 11:03 | 51.41122 | 12.23311 | 471 ft | 21 kts | 85° |
| 2026-04-16 11:04 | 51.41134 | 12.23524 | 467 ft | 16 kts | 88° |
| 2026-04-16 11:04 | 51.41140 | 12.23724 | 467 ft | 19 kts | 84° |
| 2026-04-16 11:04 | 51.41152 | 12.23963 | 462 ft | 23 kts | 85° |
| 2026-04-16 11:04 | 51.41166 | 12.24240 | 460 ft | 24 kts | 85° |
| 2026-04-16 11:05 | 51.41177 | 12.24476 | 458 ft | 13 kts | 87° |
| 2026-04-16 11:05 | 51.41142 | 12.24570 | 456 ft | 0 kts | 166° |
| 2026-04-16 11:05 | 51.41128 | 12.24578 | 456 ft | 6 kts | 157° |
| 2026-04-16 11:05 | 51.41089 | 12.24624 | 454 ft | 8 kts | 141° |
| 2026-04-16 11:06 | 51.41031 | 12.24651 | 452 ft | 9 kts | 174° |
| 2026-04-16 11:06 | 51.41012 | 12.24653 | 452 ft | 0 kts | 174° |
| 2026-04-16 11:06 | 51.41001 | 12.24655 | 452 ft | 2 kts | 175° |
| 2026-04-16 11:06 | 51.40981 | 12.24655 | 451 ft | 1 kts | 196° |
| 2026-04-16 11:07 | 51.40978 | 12.24651 | 451 ft | 0 kts | 225° |
| 2026-04-16 11:07 | 51.40973 | 12.24617 | 452 ft | 6 kts | 261° |
| 2026-04-16 11:07 | 51.40969 | 12.24529 | 453 ft | 7 kts | 264° |
| 2026-04-16 11:07 | 51.40968 | 12.24500 | 453 ft | 0 kts | 265° |